sensor_id;sensor_type;location;lat;lon;timestamp;P1;durP1;ratioP1;P2;durP2;ratioP2
45382;SDS011;42455;51.660;5.824;2022-11-30T00:01:41;30.0;;;20.0;;
45382;SDS011;42455;51.660;5.824;2022-11-30T00:06:47;29.5;;;20.0;;
45382;SDS011;42455;51.660;5.824;2022-11-30T00:11:53;28.0;;;21.0;;
45382;SDS011;42455;51.660;5.824;2022-11-30T00:16:59;29.5;;;21.0;;
45382;SDS011;42455;51.660;5.824;2022-11-30T00:22:06;29.0;;;21.0;;
45382;SDS011;42455;51.660;5.824;2022-11-30T00:27:12;28.0;;;21.0;;
45382;SDS011;42455;51.660;5.824;2022-11-30T00:32:18;28.5;;;21.0;;
45382;SDS011;42455;51.660;5.824;2022-11-30T00:37:24;24.5;;;19.5;;
45382;SDS011;42455;51.660;5.824;2022-11-30T00:42:30;26.0;;;20.0;;
45382;SDS011;42455;51.660;5.824;2022-11-30T00:47:37;24.0;;;19.0;;
45382;SDS011;42455;51.660;5.824;2022-11-30T00:52:43;25.0;;;19.0;;
45382;SDS011;42455;51.660;5.824;2022-11-30T00:57:49;24.0;;;19.0;;
45382;SDS011;42455;51.660;5.824;2022-11-30T01:02:55;24.0;;;19.0;;
45382;SDS011;42455;51.660;5.824;2022-11-30T01:08:02;24.0;;;19.5;;
45382;SDS011;42455;51.660;5.824;2022-11-30T01:13:08;23.0;;;19.0;;
45382;SDS011;42455;51.660;5.824;2022-11-30T01:18:14;24.0;;;20.0;;
45382;SDS011;42455;51.660;5.824;2022-11-30T01:23:20;22.0;;;19.0;;
45382;SDS011;42455;51.660;5.824;2022-11-30T01:28:26;24.0;;;19.5;;
45382;SDS011;42455;51.660;5.824;2022-11-30T01:33:33;24.5;;;21.0;;
45382;SDS011;42455;51.660;5.824;2022-11-30T01:38:40;26.0;;;22.0;;
45382;SDS011;42455;51.660;5.824;2022-11-30T01:43:46;27.0;;;23.0;;
45382;SDS011;42455;51.660;5.824;2022-11-30T01:48:53;26.0;;;23.0;;
45382;SDS011;42455;51.660;5.824;2022-11-30T01:53:57;27.0;;;23.0;;
45382;SDS011;42455;51.660;5.824;2022-11-30T01:59:03;26.0;;;24.0;;
45382;SDS011;42455;51.660;5.824;2022-11-30T02:04:10;28.0;;;24.0;;
45382;SDS011;42455;51.660;5.824;2022-11-30T02:09:17;27.0;;;24.0;;
45382;SDS011;42455;51.660;5.824;2022-11-30T02:14:34;26.0;;;23.0;;
45382;SDS011;42455;51.660;5.824;2022-11-30T02:20:03;26.0;;;23.0;;
45382;SDS011;42455;51.660;5.824;2022-11-30T02:25:44;28.0;;;24.0;;
45382;SDS011;42455;51.660;5.824;2022-11-30T02:30:23;28.0;;;24.0;;
45382;SDS011;42455;51.660;5.824;2022-11-30T02:34:47;27.0;;;24.0;;
45382;SDS011;42455;51.660;5.824;2022-11-30T02:39:53;27.0;;;24.0;;
45382;SDS011;42455;51.660;5.824;2022-11-30T02:44:59;27.0;;;24.0;;
45382;SDS011;42455;51.660;5.824;2022-11-30T02:50:06;27.0;;;24.0;;
45382;SDS011;42455;51.660;5.824;2022-11-30T02:55:14;26.0;;;23.0;;
45382;SDS011;42455;51.660;5.824;2022-11-30T03:00:18;25.0;;;22.0;;
45382;SDS011;42455;51.660;5.824;2022-11-30T03:05:24;27.0;;;23.0;;
45382;SDS011;42455;51.660;5.824;2022-11-30T03:10:30;28.0;;;24.0;;
45382;SDS011;42455;51.660;5.824;2022-11-30T03:15:37;26.0;;;23.0;;
45382;SDS011;42455;51.660;5.824;2022-11-30T03:20:43;26.0;;;23.0;;
45382;SDS011;42455;51.660;5.824;2022-11-30T03:25:49;25.0;;;22.5;;
45382;SDS011;42455;51.660;5.824;2022-11-30T03:30:55;24.0;;;21.0;;
45382;SDS011;42455;51.660;5.824;2022-11-30T03:36:06;25.0;;;22.0;;
45382;SDS011;42455;51.660;5.824;2022-11-30T03:41:12;26.0;;;22.0;;
45382;SDS011;42455;51.660;5.824;2022-11-30T03:46:14;25.0;;;22.0;;
45382;SDS011;42455;51.660;5.824;2022-11-30T03:51:20;24.0;;;22.0;;
45382;SDS011;42455;51.660;5.824;2022-11-30T03:56:27;24.0;;;21.0;;
45382;SDS011;42455;51.660;5.824;2022-11-30T04:01:33;26.0;;;22.0;;
45382;SDS011;42455;51.660;5.824;2022-11-30T04:06:39;25.0;;;22.0;;
45382;SDS011;42455;51.660;5.824;2022-11-30T04:11:45;26.0;;;22.5;;
45382;SDS011;42455;51.660;5.824;2022-11-30T04:16:51;25.0;;;22.0;;
45382;SDS011;42455;51.660;5.824;2022-11-30T04:21:57;25.0;;;22.0;;
45382;SDS011;42455;51.660;5.824;2022-11-30T04:27:03;26.0;;;22.0;;
45382;SDS011;42455;51.660;5.824;2022-11-30T04:32:10;27.0;;;23.0;;
45382;SDS011;42455;51.660;5.824;2022-11-30T04:37:16;28.0;;;23.0;;
45382;SDS011;42455;51.660;5.824;2022-11-30T04:42:22;27.0;;;23.0;;
45382;SDS011;42455;51.660;5.824;2022-11-30T04:47:28;26.0;;;23.0;;
45382;SDS011;42455;51.660;5.824;2022-11-30T04:52:35;26.5;;;22.0;;
45382;SDS011;42455;51.660;5.824;2022-11-30T04:57:41;26.0;;;22.0;;
45382;SDS011;42455;51.660;5.824;2022-11-30T05:02:47;25.0;;;22.0;;
45382;SDS011;42455;51.660;5.824;2022-11-30T05:07:54;25.0;;;22.0;;
45382;SDS011;42455;51.660;5.824;2022-11-30T05:12:59;25.0;;;21.0;;
45382;SDS011;42455;51.660;5.824;2022-11-30T05:18:06;24.0;;;21.0;;
45382;SDS011;42455;51.660;5.824;2022-11-30T05:23:11;24.0;;;21.0;;
45382;SDS011;42455;51.660;5.824;2022-11-30T05:28:17;25.0;;;20.0;;
45382;SDS011;42455;51.660;5.824;2022-11-30T05:33:23;23.0;;;20.0;;
45382;SDS011;42455;51.660;5.824;2022-11-30T05:38:29;23.5;;;19.0;;
45382;SDS011;42455;51.660;5.824;2022-11-30T05:43:36;23.0;;;20.0;;
45382;SDS011;42455;51.660;5.824;2022-11-30T05:48:42;24.0;;;20.0;;
45382;SDS011;42455;51.660;5.824;2022-11-30T05:53:47;24.0;;;21.0;;
45382;SDS011;42455;51.660;5.824;2022-11-30T05:58:53;24.0;;;21.0;;
45382;SDS011;42455;51.660;5.824;2022-11-30T06:04:00;24.5;;;21.0;;
45382;SDS011;42455;51.660;5.824;2022-11-30T06:09:06;25.0;;;21.5;;
45382;SDS011;42455;51.660;5.824;2022-11-30T06:14:12;26.0;;;21.0;;
45382;SDS011;42455;51.660;5.824;2022-11-30T06:19:18;24.0;;;20.0;;
45382;SDS011;42455;51.660;5.824;2022-11-30T06:24:24;22.0;;;19.0;;
45382;SDS011;42455;51.660;5.824;2022-11-30T06:29:31;23.0;;;19.0;;
45382;SDS011;42455;51.660;5.824;2022-11-30T06:34:37;24.0;;;20.0;;
45382;SDS011;42455;51.660;5.824;2022-11-30T06:39:43;23.0;;;20.0;;
45382;SDS011;42455;51.660;5.824;2022-11-30T06:44:49;23.0;;;19.0;;
45382;SDS011;42455;51.660;5.824;2022-11-30T06:49:55;28.0;;;19.0;;
45382;SDS011;42455;51.660;5.824;2022-11-30T06:55:02;35.0;;;22.0;;
45382;SDS011;42455;51.660;5.824;2022-11-30T07:00:08;27.0;;;19.0;;
45382;SDS011;42455;51.660;5.824;2022-11-30T07:05:14;22.0;;;18.0;;
45382;SDS011;42455;51.660;5.824;2022-11-30T07:10:20;21.0;;;17.0;;
45382;SDS011;42455;51.660;5.824;2022-11-30T07:15:26;24.0;;;19.0;;
45382;SDS011;42455;51.660;5.824;2022-11-30T07:20:33;20.5;;;18.0;;
45382;SDS011;42455;51.660;5.824;2022-11-30T07:25:39;23.0;;;18.0;;
45382;SDS011;42455;51.660;5.824;2022-11-30T07:30:45;21.0;;;17.0;;
45382;SDS011;42455;51.660;5.824;2022-11-30T07:35:51;22.0;;;19.0;;
45382;SDS011;42455;51.660;5.824;2022-11-30T07:40:58;21.0;;;18.0;;
45382;SDS011;42455;51.660;5.824;2022-11-30T07:46:04;19.0;;;17.0;;
45382;SDS011;42455;51.660;5.824;2022-11-30T07:51:11;19.0;;;16.0;;
45382;SDS011;42455;51.660;5.824;2022-11-30T07:56:17;19.0;;;16.0;;
45382;SDS011;42455;51.660;5.824;2022-11-30T08:01:26;18.0;;;16.0;;
45382;SDS011;42455;51.660;5.824;2022-11-30T08:06:29;20.5;;;17.0;;
45382;SDS011;42455;51.660;5.824;2022-11-30T08:11:35;16.0;;;14.0;;
45382;SDS011;42455;51.660;5.824;2022-11-30T08:16:41;16.0;;;13.0;;
45382;SDS011;42455;51.660;5.824;2022-11-30T08:21:47;13.0;;;11.0;;
45382;SDS011;42455;51.660;5.824;2022-11-30T08:26:53;13.0;;;11.0;;
45382;SDS011;42455;51.660;5.824;2022-11-30T08:32:00;17.0;;;14.0;;
45382;SDS011;42455;51.660;5.824;2022-11-30T08:37:06;17.0;;;14.0;;
45382;SDS011;42455;51.660;5.824;2022-11-30T08:42:12;17.0;;;15.0;;
45382;SDS011;42455;51.660;5.824;2022-11-30T08:47:18;24.5;;;16.0;;
45382;SDS011;42455;51.660;5.824;2022-11-30T08:52:25;25.0;;;17.0;;
45382;SDS011;42455;51.660;5.824;2022-11-30T08:57:31;28.5;;;18.0;;
45382;SDS011;42455;51.660;5.824;2022-11-30T09:02:37;38.5;;;18.5;;
45382;SDS011;42455;51.660;5.824;2022-11-30T09:07:43;31.5;;;18.0;;
45382;SDS011;42455;51.660;5.824;2022-11-30T09:12:49;31.0;;;18.0;;
45382;SDS011;42455;51.660;5.824;2022-11-30T09:17:56;29.5;;;19.0;;
45382;SDS011;42455;51.660;5.824;2022-11-30T09:23:02;26.0;;;20.0;;
45382;SDS011;42455;51.660;5.824;2022-11-30T09:28:08;25.0;;;20.0;;
45382;SDS011;42455;51.660;5.824;2022-11-30T09:33:14;28.0;;;21.0;;
45382;SDS011;42455;51.660;5.824;2022-11-30T09:38:20;25.0;;;21.0;;
45382;SDS011;42455;51.660;5.824;2022-11-30T09:43:50;24.0;;;21.0;;
45382;SDS011;42455;51.660;5.824;2022-11-30T09:48:50;26.0;;;22.0;;
45382;SDS011;42455;51.660;5.824;2022-11-30T09:53:40;29.0;;;23.0;;
45382;SDS011;42455;51.660;5.824;2022-11-30T09:58:46;29.5;;;23.0;;
45382;SDS011;42455;51.660;5.824;2022-11-30T10:03:51;29.0;;;23.0;;
45382;SDS011;42455;51.660;5.824;2022-11-30T10:09:20;31.0;;;25.0;;
45382;SDS011;42455;51.660;5.824;2022-11-30T10:14:23;30.0;;;24.0;;
45382;SDS011;42455;51.660;5.824;2022-11-30T10:19:17;30.0;;;24.0;;
45382;SDS011;42455;51.660;5.824;2022-11-30T10:24:48;32.0;;;25.0;;
45382;SDS011;42455;51.660;5.824;2022-11-30T10:29:23;34.0;;;27.0;;
45382;SDS011;42455;51.660;5.824;2022-11-30T10:34:29;37.0;;;28.0;;
45382;SDS011;42455;51.660;5.824;2022-11-30T10:39:40;40.0;;;31.0;;
45382;SDS011;42455;51.660;5.824;2022-11-30T10:44:42;39.0;;;31.0;;
45382;SDS011;42455;51.660;5.824;2022-11-30T10:49:51;40.0;;;31.0;;
45382;SDS011;42455;51.660;5.824;2022-11-30T10:54:54;40.0;;;30.0;;
45382;SDS011;42455;51.660;5.824;2022-11-30T10:59:59;40.0;;;31.0;;
45382;SDS011;42455;51.660;5.824;2022-11-30T11:05:13;40.0;;;31.0;;
45382;SDS011;42455;51.660;5.824;2022-11-30T11:10:15;39.5;;;30.5;;
45382;SDS011;42455;51.660;5.824;2022-11-30T11:15:19;39.0;;;30.0;;
45382;SDS011;42455;51.660;5.824;2022-11-30T11:20:37;37.0;;;29.0;;
45382;SDS011;42455;51.660;5.824;2022-11-30T11:25:31;36.0;;;29.0;;
45382;SDS011;42455;51.660;5.824;2022-11-30T11:30:36;35.0;;;28.0;;
45382;SDS011;42455;51.660;5.824;2022-11-30T11:35:47;32.5;;;27.5;;
45382;SDS011;42455;51.660;5.824;2022-11-30T11:40:58;32.0;;;27.0;;
45382;SDS011;42455;51.660;5.824;2022-11-30T11:46:00;33.0;;;27.0;;
45382;SDS011;42455;51.660;5.824;2022-11-30T11:51:01;30.0;;;25.0;;
45382;SDS011;42455;51.660;5.824;2022-11-30T11:56:11;29.0;;;23.0;;
45382;SDS011;42455;51.660;5.824;2022-11-30T12:01:15;25.0;;;22.0;;
45382;SDS011;42455;51.660;5.824;2022-11-30T12:06:19;25.0;;;21.0;;
45382;SDS011;42455;51.660;5.824;2022-11-30T12:11:40;24.0;;;21.0;;
45382;SDS011;42455;51.660;5.824;2022-11-30T12:16:39;22.5;;;20.0;;
45382;SDS011;42455;51.660;5.824;2022-11-30T12:21:56;23.0;;;20.0;;
45382;SDS011;42455;51.660;5.824;2022-11-30T12:27:06;23.0;;;20.0;;
45382;SDS011;42455;51.660;5.824;2022-11-30T12:31:57;20.0;;;17.0;;
45382;SDS011;42455;51.660;5.824;2022-11-30T12:37:44;18.0;;;16.0;;
45382;SDS011;42455;51.660;5.824;2022-11-30T12:42:39;17.0;;;15.0;;
45382;SDS011;42455;51.660;5.824;2022-11-30T12:47:26;16.0;;;15.0;;
45382;SDS011;42455;51.660;5.824;2022-11-30T12:52:26;15.0;;;13.0;;
45382;SDS011;42455;51.660;5.824;2022-11-30T12:57:35;15.0;;;13.0;;
45382;SDS011;42455;51.660;5.824;2022-11-30T13:03:34;16.0;;;14.0;;
45382;SDS011;42455;51.660;5.824;2022-11-30T13:07:38;16.0;;;14.0;;
45382;SDS011;42455;51.660;5.824;2022-11-30T13:12:41;15.0;;;13.0;;
45382;SDS011;42455;51.660;5.824;2022-11-30T13:17:47;15.0;;;13.0;;
45382;SDS011;42455;51.660;5.824;2022-11-30T13:22:57;15.0;;;14.0;;
45382;SDS011;42455;51.660;5.824;2022-11-30T13:28:15;15.0;;;13.0;;
45382;SDS011;42455;51.660;5.824;2022-11-30T13:33:37;15.0;;;13.0;;
45382;SDS011;42455;51.660;5.824;2022-11-30T13:38:14;15.0;;;13.0;;
45382;SDS011;42455;51.660;5.824;2022-11-30T13:43:18;16.0;;;14.0;;
45382;SDS011;42455;51.660;5.824;2022-11-30T13:48:40;16.0;;;14.0;;
45382;SDS011;42455;51.660;5.824;2022-11-30T13:53:32;16.0;;;15.0;;
45382;SDS011;42455;51.660;5.824;2022-11-30T13:58:36;16.0;;;15.0;;
45382;SDS011;42455;51.660;5.824;2022-11-30T14:03:42;17.5;;;15.0;;
45382;SDS011;42455;51.660;5.824;2022-11-30T14:08:48;16.0;;;14.0;;
45382;SDS011;42455;51.660;5.824;2022-11-30T14:13:54;16.0;;;14.0;;
45382;SDS011;42455;51.660;5.824;2022-11-30T14:19:01;18.0;;;15.0;;
45382;SDS011;42455;51.660;5.824;2022-11-30T14:24:12;16.0;;;14.0;;
45382;SDS011;42455;51.660;5.824;2022-11-30T14:29:16;16.0;;;14.0;;
45382;SDS011;42455;51.660;5.824;2022-11-30T14:34:20;16.0;;;14.0;;
45382;SDS011;42455;51.660;5.824;2022-11-30T14:39:30;15.0;;;13.5;;
45382;SDS011;42455;51.660;5.824;2022-11-30T14:44:32;10.0;;;9.0;;
45382;SDS011;42455;51.660;5.824;2022-11-30T14:49:43;9.0;;;8.0;;
45382;SDS011;42455;51.660;5.824;2022-11-30T14:55:00;9.0;;;8.0;;
45382;SDS011;42455;51.660;5.824;2022-11-30T14:59:51;11.0;;;10.0;;
45382;SDS011;42455;51.660;5.824;2022-11-30T15:04:57;12.0;;;10.0;;
45382;SDS011;42455;51.660;5.824;2022-11-30T15:10:04;12.0;;;11.0;;
45382;SDS011;42455;51.660;5.824;2022-11-30T15:15:19;12.5;;;11.0;;
45382;SDS011;42455;51.660;5.824;2022-11-30T15:20:17;14.0;;;12.0;;
45382;SDS011;42455;51.660;5.824;2022-11-30T15:25:24;14.0;;;13.0;;
45382;SDS011;42455;51.660;5.824;2022-11-30T15:30:28;16.0;;;14.0;;
45382;SDS011;42455;51.660;5.824;2022-11-30T15:35:34;15.5;;;14.0;;
45382;SDS011;42455;51.660;5.824;2022-11-30T15:40:40;15.0;;;13.0;;
45382;SDS011;42455;51.660;5.824;2022-11-30T15:45:52;14.0;;;13.0;;
45382;SDS011;42455;51.660;5.824;2022-11-30T15:50:52;15.0;;;14.0;;
45382;SDS011;42455;51.660;5.824;2022-11-30T15:55:59;15.0;;;13.0;;
45382;SDS011;42455;51.660;5.824;2022-11-30T16:01:06;15.0;;;13.0;;
45382;SDS011;42455;51.660;5.824;2022-11-30T16:06:12;14.0;;;13.0;;
45382;SDS011;42455;51.660;5.824;2022-11-30T16:11:17;14.0;;;12.0;;
45382;SDS011;42455;51.660;5.824;2022-11-30T16:16:25;15.0;;;13.0;;
45382;SDS011;42455;51.660;5.824;2022-11-30T16:21:30;15.0;;;14.0;;
45382;SDS011;42455;51.660;5.824;2022-11-30T16:26:36;15.0;;;14.0;;
45382;SDS011;42455;51.660;5.824;2022-11-30T16:31:42;15.5;;;13.0;;
45382;SDS011;42455;51.660;5.824;2022-11-30T16:36:48;15.0;;;13.0;;
45382;SDS011;42455;51.660;5.824;2022-11-30T16:41:55;16.0;;;14.0;;
45382;SDS011;42455;51.660;5.824;2022-11-30T16:47:01;20.0;;;18.0;;
45382;SDS011;42455;51.660;5.824;2022-11-30T16:52:07;21.0;;;19.0;;
45382;SDS011;42455;51.660;5.824;2022-11-30T16:57:12;22.0;;;19.0;;
45382;SDS011;42455;51.660;5.824;2022-11-30T17:02:22;21.0;;;19.0;;
45382;SDS011;42455;51.660;5.824;2022-11-30T17:07:25;22.0;;;19.5;;
45382;SDS011;42455;51.660;5.824;2022-11-30T17:12:31;21.0;;;19.0;;
45382;SDS011;42455;51.660;5.824;2022-11-30T17:17:37;22.0;;;19.0;;
45382;SDS011;42455;51.660;5.824;2022-11-30T17:22:43;22.0;;;20.0;;
45382;SDS011;42455;51.660;5.824;2022-11-30T17:27:50;22.0;;;20.0;;
45382;SDS011;42455;51.660;5.824;2022-11-30T17:32:56;22.0;;;19.5;;
45382;SDS011;42455;51.660;5.824;2022-11-30T17:38:02;21.0;;;19.0;;
45382;SDS011;42455;51.660;5.824;2022-11-30T17:43:08;21.0;;;18.0;;
45382;SDS011;42455;51.660;5.824;2022-11-30T17:48:14;23.0;;;20.0;;
45382;SDS011;42455;51.660;5.824;2022-11-30T17:53:20;22.0;;;20.0;;
45382;SDS011;42455;51.660;5.824;2022-11-30T17:58:27;23.0;;;21.0;;
45382;SDS011;42455;51.660;5.824;2022-11-30T18:03:33;23.0;;;21.0;;
45382;SDS011;42455;51.660;5.824;2022-11-30T18:08:39;23.0;;;20.0;;
45382;SDS011;42455;51.660;5.824;2022-11-30T18:13:45;23.0;;;21.0;;
45382;SDS011;42455;51.660;5.824;2022-11-30T18:18:52;22.0;;;20.0;;
45382;SDS011;42455;51.660;5.824;2022-11-30T18:23:58;23.0;;;21.0;;
45382;SDS011;42455;51.660;5.824;2022-11-30T18:29:05;22.0;;;20.0;;
45382;SDS011;42455;51.660;5.824;2022-11-30T18:34:10;23.0;;;20.0;;
45382;SDS011;42455;51.660;5.824;2022-11-30T18:39:16;22.0;;;20.0;;
45382;SDS011;42455;51.660;5.824;2022-11-30T18:44:23;22.0;;;20.0;;
45382;SDS011;42455;51.660;5.824;2022-11-30T18:49:29;23.0;;;20.0;;
45382;SDS011;42455;51.660;5.824;2022-11-30T18:54:35;22.0;;;19.0;;
45382;SDS011;42455;51.660;5.824;2022-11-30T18:59:41;23.0;;;20.0;;
45382;SDS011;42455;51.660;5.824;2022-11-30T19:04:47;24.0;;;21.0;;
45382;SDS011;42455;51.660;5.824;2022-11-30T19:09:53;24.0;;;21.0;;
45382;SDS011;42455;51.660;5.824;2022-11-30T19:15:00;24.0;;;21.0;;
45382;SDS011;42455;51.660;5.824;2022-11-30T19:20:06;23.5;;;21.0;;
45382;SDS011;42455;51.660;5.824;2022-11-30T19:25:12;24.0;;;21.0;;
45382;SDS011;42455;51.660;5.824;2022-11-30T19:30:18;25.0;;;22.0;;
45382;SDS011;42455;51.660;5.824;2022-11-30T19:35:25;25.0;;;22.0;;
45382;SDS011;42455;51.660;5.824;2022-11-30T19:40:31;25.0;;;22.0;;
45382;SDS011;42455;51.660;5.824;2022-11-30T19:45:37;26.0;;;23.0;;
45382;SDS011;42455;51.660;5.824;2022-11-30T19:50:43;25.0;;;22.0;;
45382;SDS011;42455;51.660;5.824;2022-11-30T19:55:49;25.0;;;22.0;;
45382;SDS011;42455;51.660;5.824;2022-11-30T20:00:56;26.0;;;23.0;;
45382;SDS011;42455;51.660;5.824;2022-11-30T20:06:02;26.0;;;22.5;;
45382;SDS011;42455;51.660;5.824;2022-11-30T20:11:09;26.0;;;22.0;;
45382;SDS011;42455;51.660;5.824;2022-11-30T20:16:17;25.5;;;21.5;;
45382;SDS011;42455;51.660;5.824;2022-11-30T20:21:21;26.0;;;22.0;;
45382;SDS011;42455;51.660;5.824;2022-11-30T20:26:27;26.0;;;22.0;;
45382;SDS011;42455;51.660;5.824;2022-11-30T20:31:34;27.0;;;22.0;;
45382;SDS011;42455;51.660;5.824;2022-11-30T20:36:39;27.0;;;23.0;;
45382;SDS011;42455;51.660;5.824;2022-11-30T20:41:45;26.0;;;22.0;;
45382;SDS011;42455;51.660;5.824;2022-11-30T20:46:51;27.0;;;22.0;;
45382;SDS011;42455;51.660;5.824;2022-11-30T20:51:58;27.0;;;23.0;;
45382;SDS011;42455;51.660;5.824;2022-11-30T20:57:04;27.0;;;22.0;;
45382;SDS011;42455;51.660;5.824;2022-11-30T21:02:10;27.0;;;23.0;;
45382;SDS011;42455;51.660;5.824;2022-11-30T21:07:16;29.0;;;24.0;;
45382;SDS011;42455;51.660;5.824;2022-11-30T21:12:22;30.0;;;24.0;;
45382;SDS011;42455;51.660;5.824;2022-11-30T21:17:29;32.0;;;25.0;;
45382;SDS011;42455;51.660;5.824;2022-11-30T21:22:35;32.0;;;25.0;;
45382;SDS011;42455;51.660;5.824;2022-11-30T21:27:41;34.0;;;26.0;;
45382;SDS011;42455;51.660;5.824;2022-11-30T21:32:47;37.0;;;27.0;;
45382;SDS011;42455;51.660;5.824;2022-11-30T21:37:54;34.0;;;25.0;;
45382;SDS011;42455;51.660;5.824;2022-11-30T21:43:00;37.0;;;26.0;;
45382;SDS011;42455;51.660;5.824;2022-11-30T21:48:06;36.0;;;26.0;;
45382;SDS011;42455;51.660;5.824;2022-11-30T21:53:12;38.0;;;27.0;;
45382;SDS011;42455;51.660;5.824;2022-11-30T21:58:19;39.0;;;27.0;;
45382;SDS011;42455;51.660;5.824;2022-11-30T22:03:25;37.0;;;26.0;;
45382;SDS011;42455;51.660;5.824;2022-11-30T22:08:31;36.0;;;24.0;;
45382;SDS011;42455;51.660;5.824;2022-11-30T22:13:37;34.0;;;25.0;;
45382;SDS011;42455;51.660;5.824;2022-11-30T22:18:43;37.0;;;25.0;;
45382;SDS011;42455;51.660;5.824;2022-11-30T22:23:52;37.0;;;25.0;;
45382;SDS011;42455;51.660;5.824;2022-11-30T22:28:56;35.0;;;25.0;;
45382;SDS011;42455;51.660;5.824;2022-11-30T22:34:01;34.0;;;25.0;;
45382;SDS011;42455;51.660;5.824;2022-11-30T22:39:11;35.0;;;24.0;;
45382;SDS011;42455;51.660;5.824;2022-11-30T22:44:14;34.0;;;24.0;;
45382;SDS011;42455;51.660;5.824;2022-11-30T22:49:20;35.0;;;24.0;;
45382;SDS011;42455;51.660;5.824;2022-11-30T22:54:26;36.0;;;24.0;;
45382;SDS011;42455;51.660;5.824;2022-11-30T22:59:31;37.0;;;26.0;;
45382;SDS011;42455;51.660;5.824;2022-11-30T23:04:37;47.0;;;29.0;;
45382;SDS011;42455;51.660;5.824;2022-11-30T23:09:43;43.0;;;28.0;;
45382;SDS011;42455;51.660;5.824;2022-11-30T23:14:49;49.0;;;30.0;;
45382;SDS011;42455;51.660;5.824;2022-11-30T23:19:56;50.0;;;30.0;;
45382;SDS011;42455;51.660;5.824;2022-11-30T23:25:02;50.0;;;29.0;;
45382;SDS011;42455;51.660;5.824;2022-11-30T23:30:08;51.0;;;30.0;;
45382;SDS011;42455;51.660;5.824;2022-11-30T23:35:14;49.5;;;29.0;;
45382;SDS011;42455;51.660;5.824;2022-11-30T23:40:21;50.0;;;30.0;;
45382;SDS011;42455;51.660;5.824;2022-11-30T23:45:27;47.0;;;29.0;;
45382;SDS011;42455;51.660;5.824;2022-11-30T23:50:33;49.0;;;29.0;;
45382;SDS011;42455;51.660;5.824;2022-11-30T23:55:39;45.0;;;28.0;;
